createdAt,value
2023-02-13T00:00:53.476Z,5.95
2023-02-13T00:04:00.319Z,6.88
2023-02-13T00:07:04.883Z,6.45
2023-02-13T00:10:09.361Z,4.90
2023-02-13T00:13:13.551Z,5.55
2023-02-13T00:16:17.309Z,5.07
2023-02-13T00:19:23.897Z,4.60
2023-02-13T00:22:33.052Z,5.13
2023-02-13T00:25:36.418Z,5.70
2023-02-13T00:28:39.799Z,5.15
2023-02-13T00:31:44.806Z,6.68
2023-02-13T00:34:53.946Z,6.80
2023-02-13T00:38:01.467Z,7.95
2023-02-13T00:41:05.917Z,6.35
2023-02-13T00:47:28.556Z,9.13
2023-02-13T00:53:50.223Z,8.80
2023-02-13T00:57:00.101Z,10.02
2023-02-13T01:00:06.389Z,8.50
2023-02-13T01:03:10.666Z,6.35
2023-02-13T01:06:24.869Z,6.90
2023-02-13T01:09:30.989Z,6.88
2023-02-13T01:12:34.553Z,8.82
2023-02-13T01:15:50.645Z,12.02
2023-02-13T01:25:34.952Z,7.00
2023-02-13T01:28:43.260Z,7.45
2023-02-13T01:31:49.271Z,10.93
2023-02-13T01:34:55.386Z,6.18
2023-02-13T01:38:10.774Z,7.55
2023-02-13T01:51:35.028Z,7.30
2023-02-13T01:54:41.847Z,8.40
2023-02-13T02:01:13.051Z,8.02
2023-02-13T02:04:35.693Z,9.13
2023-02-13T02:07:50.585Z,9.80
2023-02-13T02:11:19.464Z,7.47
2023-02-13T02:21:12.480Z,3.70
2023-02-13T02:24:57.710Z,3.78
2023-02-13T02:32:29.966Z,5.40
2023-02-13T02:39:03.500Z,5.88
2023-02-13T02:42:39.116Z,4.60
2023-02-13T02:45:58.845Z,3.95
2023-02-13T02:53:11.557Z,3.47
2023-02-13T02:56:33.361Z,6.15
2023-02-13T03:07:00.779Z,4.10
2023-02-13T03:10:42.528Z,3.72
2023-02-13T03:25:38.896Z,4.45
2023-02-13T03:29:43.916Z,4.75
2023-02-13T03:45:11.683Z,2.92
2023-02-13T05:21:52.489Z,3.40
2023-02-13T05:38:47.673Z,4.43
2023-02-13T05:42:00.835Z,8.98
2023-02-13T05:48:58.752Z,4.03
2023-02-13T05:55:25.280Z,2.78
2023-02-13T05:58:32.251Z,2.50
2023-02-13T06:05:19.488Z,4.38
2023-02-13T06:08:32.648Z,9.00
2023-02-13T06:44:53.824Z,4.07
2023-02-13T06:55:04.785Z,4.97
2023-02-13T07:08:47.453Z,3.72
2023-02-13T07:11:55.886Z,3.20
2023-02-13T07:29:34.494Z,1.55
2023-02-13T07:42:45.668Z,2.53
2023-02-13T07:45:58.879Z,2.03
2023-02-13T07:52:25.250Z,2.20
2023-02-13T07:55:35.194Z,1.73
2023-02-13T07:58:49.505Z,2.33
2023-02-13T08:01:55.848Z,1.02
2023-02-13T08:48:32.726Z,3.05
2023-02-13T08:54:56.483Z,3.92
2023-02-13T09:08:17.298Z,6.53
2023-02-13T09:11:25.931Z,7.55
2023-02-13T10:02:34.974Z,14.82
2023-02-13T10:06:00.495Z,13.30
2023-02-13T10:13:00.213Z,20.75
2023-02-13T10:19:46.990Z,29.00
2023-02-13T10:23:15.807Z,25.50
2023-02-13T10:40:42.308Z,18.70
2023-02-13T10:52:02.130Z,19.23
2023-02-13T10:55:55.110Z,15.38
2023-02-13T11:02:44.499Z,13.30
2023-02-13T11:09:09.360Z,14.88
2023-02-13T11:19:58.096Z,15.00
2023-02-13T11:23:34.815Z,14.18
2023-02-13T11:30:00.369Z,16.95
2023-02-13T11:40:33.343Z,17.20
2023-02-13T11:44:21.693Z,17.52
2023-02-13T11:47:45.706Z,17.60
2023-02-13T12:01:46.722Z,22.48
2023-02-13T12:04:57.661Z,23.23
2023-02-13T12:08:03.134Z,21.65
2023-02-13T12:14:52.782Z,19.73
2023-02-13T12:53:20.223Z,13.32
2023-02-13T12:56:28.886Z,11.70
2023-02-13T13:18:12.532Z,8.27
2023-02-13T14:27:27.510Z,12.68
2023-02-13T14:30:43.618Z,10.25
2023-02-13T14:34:02.269Z,8.55
2023-02-13T14:37:31.179Z,8.65
2023-02-13T14:40:50.140Z,9.15
2023-02-13T14:44:00.534Z,9.80
2023-02-13T14:47:17.002Z,12.90
2023-02-13T14:50:32.661Z,10.48
2023-02-13T14:53:58.527Z,9.40
2023-02-13T14:57:10.071Z,10.60
2023-02-13T15:00:31.816Z,10.05
2023-02-13T15:03:49.835Z,9.23
2023-02-13T15:06:57.017Z,45.55
2023-02-13T15:10:38.637Z,54.55
2023-02-13T15:13:42.308Z,51.13
2023-02-13T15:16:57.772Z,64.28
2023-02-13T15:20:30.324Z,53.17
2023-02-13T15:23:37.571Z,47.85
2023-02-13T15:26:42.818Z,46.58
2023-02-13T15:30:24.417Z,47.40
2023-02-13T15:33:33.785Z,39.40
2023-02-13T15:36:44.766Z,43.08
2023-02-13T15:39:53.745Z,40.33
2023-02-13T15:43:00.826Z,37.58
2023-02-13T15:46:21.673Z,36.85
2023-02-13T15:49:28.455Z,42.78
2023-02-13T15:52:53.385Z,26.27
2023-02-13T15:59:18.587Z,25.67
2023-02-13T16:02:37.139Z,22.27
2023-02-13T16:05:45.268Z,28.17
2023-02-13T16:12:27.825Z,36.20
2023-02-13T16:18:40.833Z,33.75
2023-02-13T16:21:54.955Z,36.17
2023-02-13T16:25:18.664Z,28.23
2023-02-13T16:28:33.251Z,26.48
2023-02-13T16:31:39.866Z,23.73
2023-02-13T16:34:50.956Z,19.52
2023-02-13T16:38:04.758Z,21.67
2023-02-13T16:41:24.510Z,19.02
2023-02-13T16:44:32.422Z,16.58
2023-02-13T16:47:37.305Z,17.55
2023-02-13T16:50:41.746Z,16.73
2023-02-13T16:53:46.774Z,19.17
2023-02-13T16:56:58.451Z,23.30
2023-02-13T17:00:20.510Z,28.60
2023-02-13T17:03:24.425Z,45.00
2023-02-13T17:06:37.343Z,42.42
2023-02-13T17:09:43.056Z,39.78
2023-02-13T17:12:51.932Z,39.17
2023-02-13T17:19:16.080Z,35.33
2023-02-13T17:22:42.049Z,29.58
2023-02-13T17:32:29.061Z,50.25
2023-02-13T17:35:33.220Z,48.13
2023-02-13T17:38:36.538Z,46.13
2023-02-13T17:45:02.204Z,43.33
2023-02-13T17:48:10.023Z,69.07
2023-02-13T17:51:19.756Z,59.22
2023-02-13T17:54:28.748Z,41.50
2023-02-13T17:57:45.893Z,31.63
2023-02-13T18:00:54.075Z,27.80
2023-02-13T18:10:40.336Z,15.50
2023-02-13T18:17:07.803Z,17.17
2023-02-13T18:20:25.050Z,33.60
2023-02-13T18:23:30.498Z,74.90
2023-02-13T18:26:35.227Z,78.97
2023-02-13T18:29:38.649Z,74.20
2023-02-13T18:33:05.395Z,72.25
2023-02-13T18:36:10.730Z,74.43
2023-02-13T18:39:14.327Z,67.32
2023-02-13T18:42:20.560Z,77.93
2023-02-13T18:45:24.067Z,37.45
2023-02-13T18:48:32.434Z,17.10
2023-02-13T18:51:36.760Z,13.43
2023-02-13T18:54:44.293Z,10.45
2023-02-13T18:57:49.112Z,10.95
2023-02-13T19:00:54.465Z,8.25
2023-02-13T19:07:15.867Z,11.15
2023-02-13T19:10:19.064Z,15.48
2023-02-13T19:13:28.934Z,20.40
2023-02-13T19:16:35.393Z,20.50
2023-02-13T19:19:46.196Z,16.13
2023-02-13T19:26:11.358Z,12.80
2023-02-13T19:29:25.510Z,26.77
2023-02-13T19:32:36.921Z,41.53
2023-02-13T19:35:41.704Z,22.17
2023-02-13T19:38:46.852Z,51.42
2023-02-13T19:41:57.261Z,43.60
2023-02-13T19:45:02.700Z,14.73
2023-02-13T19:48:06.771Z,10.10
2023-02-13T19:51:17.004Z,8.93
2023-02-13T19:54:20.918Z,9.48
2023-02-13T19:57:31.042Z,12.45
2023-02-13T20:00:40.849Z,12.40
2023-02-13T20:03:56.694Z,12.07
2023-02-13T20:07:04.141Z,14.85
2023-02-13T20:10:10.990Z,13.32
2023-02-13T20:13:18.682Z,14.63
2023-02-13T20:16:26.183Z,14.85
2023-02-13T20:19:36.767Z,14.30
2023-02-13T20:22:45.484Z,13.70
2023-02-13T20:25:58.881Z,11.45
2023-02-13T20:29:11.393Z,10.35
2023-02-13T20:32:16.759Z,15.27
2023-02-13T20:35:22.130Z,12.07
2023-02-13T20:38:32.442Z,15.00
2023-02-13T20:44:44.654Z,11.73
2023-02-13T20:47:48.975Z,15.75
2023-02-13T20:51:05.622Z,16.90
2023-02-13T20:54:12.112Z,15.48
2023-02-13T20:57:36.695Z,13.38
2023-02-13T21:03:58.580Z,17.02
2023-02-13T21:07:13.507Z,13.05
2023-02-13T21:10:27.039Z,10.05
2023-02-13T21:13:34.570Z,9.70
2023-02-13T21:16:46.551Z,10.60
2023-02-13T21:19:57.280Z,9.45
2023-02-13T21:23:05.522Z,8.20
2023-02-13T21:26:35.558Z,9.13
2023-02-13T21:32:57.435Z,11.73
2023-02-13T21:36:04.134Z,12.93
2023-02-13T21:39:11.012Z,8.93
2023-02-13T21:42:17.920Z,9.68
2023-02-13T21:45:27.290Z,13.27
2023-02-13T21:48:33.188Z,19.50
2023-02-13T21:51:46.651Z,19.48
2023-02-13T21:54:52.545Z,25.52
2023-02-13T21:57:58.661Z,22.00
2023-02-13T22:01:11.547Z,34.28
2023-02-13T22:04:20.036Z,45.83
2023-02-13T22:07:25.694Z,46.55
2023-02-13T22:10:32.299Z,57.42
2023-02-13T22:13:43.465Z,29.73
2023-02-13T22:16:51.811Z,25.80
2023-02-13T22:20:04.201Z,39.25
2023-02-13T22:23:29.196Z,23.63
2023-02-13T22:26:41.106Z,36.33
2023-02-13T22:29:48.461Z,21.77
2023-02-13T22:36:17.813Z,16.27
2023-02-13T22:39:23.285Z,17.95
2023-02-13T22:45:50.146Z,9.55
2023-02-13T22:52:17.348Z,8.93
2023-02-13T22:58:44.574Z,11.57
2023-02-13T23:02:00.428Z,13.70
2023-02-13T23:05:04.939Z,14.82
2023-02-13T23:08:17.213Z,10.23
2023-02-13T23:11:47.488Z,12.23
2023-02-13T23:18:19.491Z,18.25
2023-02-13T23:28:22.897Z,13.60
